createdAt,value
2019-01-15T00:00:52.022Z,302.65
2019-01-15T00:01:51.429Z,301.99
2019-01-15T00:02:51.431Z,302.80
2019-01-15T00:03:51.399Z,302.36
2019-01-15T00:04:51.404Z,303.03
2019-01-15T00:05:51.382Z,302.49
2019-01-15T00:06:51.354Z,302.37
2019-01-15T00:07:51.356Z,302.53
2019-01-15T00:08:51.362Z,302.09
2019-01-15T00:09:51.358Z,303.10
2019-01-15T00:10:51.326Z,302.57
2019-01-15T00:11:51.309Z,301.82
2019-01-15T00:12:51.546Z,302.28
2019-01-15T00:13:51.301Z,302.16
2019-01-15T00:14:51.289Z,302.66
2019-01-15T00:15:51.289Z,302.52
2019-01-15T00:16:51.267Z,302.14
2019-01-15T00:17:51.565Z,302.23
2019-01-15T00:18:51.234Z,302.11
2019-01-15T00:19:52.019Z,302.49
2019-01-15T00:20:51.224Z,302.60
2019-01-15T00:21:51.215Z,302.33
2019-01-15T00:22:51.236Z,302.49
2019-01-15T00:23:51.191Z,302.45
2019-01-15T00:24:51.173Z,302.65
2019-01-15T00:25:51.182Z,302.38
2019-01-15T00:26:51.168Z,302.98
2019-01-15T00:27:59.593Z,302.37
2019-01-15T00:28:59.299Z,302.60
2019-01-15T00:29:59.203Z,301.87
2019-01-15T00:30:51.115Z,302.65
2019-01-15T00:31:51.131Z,302.35
2019-01-15T00:32:51.091Z,302.00
2019-01-15T00:33:51.197Z,302.58
2019-01-15T00:34:51.049Z,301.91
2019-01-15T00:35:51.053Z,302.36
2019-01-15T00:36:51.042Z,301.83
2019-01-15T00:37:51.073Z,301.83
2019-01-15T00:38:51.046Z,301.38
2019-01-15T00:39:51.078Z,302.07
2019-01-15T00:40:50.983Z,301.69
2019-01-15T00:41:50.990Z,302.00
2019-01-15T00:42:51.623Z,302.34
2019-01-15T00:43:50.986Z,302.71
2019-01-15T00:44:50.979Z,302.49
2019-01-15T00:45:50.974Z,302.07
2019-01-15T00:46:50.947Z,301.65
2019-01-15T00:47:50.936Z,302.17
2019-01-15T00:48:50.930Z,302.26
2019-01-15T00:49:50.916Z,301.96
2019-01-15T00:50:50.952Z,301.61
2019-01-15T00:51:50.953Z,302.00
2019-01-15T00:52:50.871Z,302.04
2019-01-15T00:53:50.897Z,301.92
2019-01-15T00:54:50.871Z,302.03
2019-01-15T00:55:50.856Z,301.79
2019-01-15T00:56:50.835Z,301.74
2019-01-15T00:57:50.849Z,301.58
2019-01-15T00:58:50.907Z,301.63
2019-01-15T00:59:50.798Z,301.80
2019-01-15T01:00:50.805Z,302.15
2019-01-15T01:01:50.792Z,301.95
2019-01-15T01:02:50.778Z,301.20
2019-01-15T01:03:50.774Z,301.70
2019-01-15T01:04:50.782Z,301.82
2019-01-15T01:05:50.748Z,301.70
2019-01-15T01:06:50.759Z,302.24
2019-01-15T01:07:50.724Z,301.50
2019-01-15T01:08:50.739Z,301.81
2019-01-15T01:09:50.691Z,302.38
2019-01-15T01:10:50.717Z,301.60
2019-01-15T01:11:50.675Z,301.94
2019-01-15T01:12:50.675Z,301.95
2019-01-15T01:13:50.685Z,300.92
2019-01-15T01:14:50.677Z,302.02
2019-01-15T01:15:50.648Z,301.85
2019-01-15T01:16:50.641Z,302.04
2019-01-15T01:17:50.624Z,302.10
2019-01-15T01:18:50.616Z,301.83
2019-01-15T01:19:50.619Z,301.78
2019-01-15T01:20:50.590Z,301.80
2019-01-15T01:21:50.613Z,302.17
2019-01-15T01:22:50.562Z,301.86
2019-01-15T01:23:50.602Z,302.25
2019-01-15T01:24:50.556Z,301.84
2019-01-15T01:25:50.562Z,302.04
2019-01-15T01:26:50.522Z,302.44
2019-01-15T01:27:50.500Z,302.09
2019-01-15T01:28:50.554Z,302.01
2019-01-15T01:29:50.507Z,302.10
2019-01-15T01:30:59.059Z,301.96
2019-01-15T01:31:59.121Z,301.81
2019-01-15T01:32:57.576Z,301.76
2019-01-15T01:33:59.033Z,301.86
2019-01-15T01:34:50.469Z,302.53
2019-01-15T01:35:57.506Z,301.99
2019-01-15T01:36:58.511Z,301.64
2019-01-15T01:37:57.807Z,302.00
2019-01-15T01:38:58.491Z,302.23
2019-01-15T01:39:59.272Z,301.93
2019-01-15T01:40:50.375Z,301.50
2019-01-15T01:41:50.418Z,302.01
2019-01-15T01:42:50.435Z,302.05
2019-01-15T01:43:50.350Z,302.14
2019-01-15T01:44:58.390Z,301.43
2019-01-15T01:45:57.891Z,302.01
2019-01-15T01:46:50.372Z,301.87
2019-01-15T01:48:00.969Z,302.46
2019-01-15T01:48:50.378Z,302.06
2019-01-15T01:49:50.367Z,301.17
2019-01-15T01:50:50.824Z,301.55
2019-01-15T01:51:50.269Z,301.94
2019-01-15T01:52:50.252Z,302.40
2019-01-15T01:53:50.253Z,301.66
2019-01-15T01:54:50.236Z,302.04
2019-01-15T01:55:50.226Z,302.05
2019-01-15T01:56:50.227Z,301.48
2019-01-15T01:57:50.210Z,301.89
2019-01-15T01:58:50.255Z,301.68
2019-01-15T01:59:50.184Z,302.18
2019-01-15T02:00:50.192Z,302.14
2019-01-15T02:01:50.187Z,301.82
2019-01-15T02:02:50.172Z,301.42
2019-01-15T02:03:50.174Z,301.78
2019-01-15T02:04:50.914Z,301.88
2019-01-15T02:05:50.127Z,301.80
2019-01-15T02:06:50.097Z,302.10
2019-01-15T02:07:50.149Z,302.34
2019-01-15T02:08:50.114Z,302.06
2019-01-15T02:09:50.077Z,302.00
2019-01-15T02:10:50.075Z,301.61
2019-01-15T02:11:50.104Z,301.54
2019-01-15T02:12:50.038Z,301.94
2019-01-15T02:13:50.047Z,302.48
2019-01-15T02:14:50.281Z,301.81
2019-01-15T02:15:58.828Z,301.71
2019-01-15T02:16:50.364Z,302.03
2019-01-15T02:17:50.319Z,301.85
2019-01-15T02:18:49.983Z,302.29
2019-01-15T02:19:50.036Z,302.10
2019-01-15T02:20:49.947Z,301.70
2019-01-15T02:21:49.951Z,302.15
2019-01-15T02:22:49.936Z,301.40
2019-01-15T02:23:49.964Z,301.91
2019-01-15T02:24:49.932Z,301.95
2019-01-15T02:25:49.906Z,302.24
2019-01-15T02:26:51.503Z,301.96
2019-01-15T02:27:49.904Z,302.35
2019-01-15T02:28:49.912Z,302.27
2019-01-15T02:29:49.921Z,302.01
2019-01-15T02:30:49.854Z,301.94
2019-01-15T02:31:49.932Z,301.96
2019-01-15T02:32:49.869Z,302.18
2019-01-15T02:33:49.837Z,302.33
2019-01-15T02:34:49.830Z,302.53
2019-01-15T02:35:49.798Z,302.25
2019-01-15T02:36:49.803Z,302.30
2019-01-15T02:37:49.795Z,302.33
2019-01-15T02:38:49.775Z,301.87
2019-01-15T02:39:49.819Z,301.73
2019-01-15T02:40:49.762Z,302.11
2019-01-15T02:41:50.482Z,301.79
2019-01-15T02:42:49.767Z,302.12
2019-01-15T02:43:49.739Z,301.54
2019-01-15T02:44:56.816Z,301.55
2019-01-15T02:45:58.490Z,301.89
2019-01-15T02:46:56.762Z,302.07
2019-01-15T02:47:49.675Z,301.92
2019-01-15T02:48:49.672Z,301.82
2019-01-15T02:49:49.669Z,302.06
2019-01-15T02:50:49.633Z,301.92
2019-01-15T02:51:49.624Z,301.86
2019-01-15T02:52:49.612Z,301.54
2019-01-15T02:53:49.608Z,302.15
2019-01-15T02:54:49.642Z,301.69
2019-01-15T02:55:49.605Z,302.06
2019-01-15T02:56:49.604Z,302.03
2019-01-15T02:57:49.581Z,301.43
2019-01-15T02:58:49.564Z,301.69
2019-01-15T02:59:49.548Z,301.58
2019-01-15T03:00:49.553Z,301.94
2019-01-15T03:01:49.547Z,301.09
2019-01-15T03:02:49.545Z,301.90
2019-01-15T03:03:49.522Z,301.94
2019-01-15T03:04:49.529Z,301.37
2019-01-15T03:05:49.493Z,301.15
2019-01-15T03:06:49.494Z,301.35
2019-01-15T03:07:49.452Z,301.79
2019-01-15T03:08:49.447Z,301.09
2019-01-15T03:09:49.453Z,301.62
2019-01-15T03:10:49.455Z,300.96
2019-01-15T03:11:49.423Z,301.30
2019-01-15T03:12:55.039Z,301.33
2019-01-15T03:13:50.399Z,301.55
2019-01-15T03:14:49.409Z,301.37
2019-01-15T03:15:49.393Z,301.64
2019-01-15T03:16:59.112Z,301.78
2019-01-15T03:17:57.139Z,301.52
2019-01-15T03:18:57.400Z,301.55
2019-01-15T03:19:56.683Z,301.27
2019-01-15T03:20:49.348Z,302.00
2019-01-15T03:21:49.385Z,301.55
2019-01-15T03:22:49.312Z,301.59
2019-01-15T03:23:49.297Z,301.61
2019-01-15T03:24:49.307Z,301.46
2019-01-15T03:25:49.292Z,301.68
2019-01-15T03:26:49.321Z,301.48
2019-01-15T03:27:49.284Z,301.60
2019-01-15T03:28:49.234Z,301.85
2019-01-15T03:29:50.103Z,301.56
2019-01-15T03:30:49.264Z,301.28
2019-01-15T03:31:49.217Z,301.73
2019-01-15T03:32:49.236Z,301.95
2019-01-15T03:33:49.203Z,301.48
2019-01-15T03:34:49.216Z,301.76
2019-01-15T03:35:49.188Z,301.50
2019-01-15T03:36:49.155Z,301.80
2019-01-15T03:37:49.157Z,301.11
2019-01-15T03:38:49.166Z,301.64
2019-01-15T03:39:49.157Z,301.39
2019-01-15T03:40:49.132Z,301.86
2019-01-15T03:41:49.114Z,301.70
2019-01-15T03:42:49.112Z,302.02
2019-01-15T03:43:49.099Z,301.88
2019-01-15T03:44:49.099Z,301.58
2019-01-15T03:45:49.071Z,302.03
2019-01-15T03:46:49.059Z,302.18
2019-01-15T03:47:49.043Z,301.54
2019-01-15T03:48:49.033Z,302.08
2019-01-15T03:49:49.610Z,302.07
2019-01-15T03:50:49.015Z,301.96
2019-01-15T03:51:49.006Z,302.03
2019-01-15T03:52:49.005Z,302.06
2019-01-15T03:53:48.975Z,302.06
2019-01-15T03:54:48.988Z,302.18
2019-01-15T03:55:48.970Z,302.41
2019-01-15T03:56:48.944Z,302.02
2019-01-15T03:57:48.949Z,302.25
2019-01-15T03:58:48.934Z,302.16
2019-01-15T03:59:48.960Z,302.70
2019-01-15T04:00:48.945Z,302.33
2019-01-15T04:01:55.992Z,302.59
2019-01-15T04:02:56.950Z,302.38
2019-01-15T04:03:48.958Z,302.54
2019-01-15T04:04:48.930Z,301.74
2019-01-15T04:05:48.920Z,302.09
2019-01-15T04:06:48.897Z,302.11
2019-01-15T04:07:48.827Z,302.23
2019-01-15T04:08:48.854Z,302.15
2019-01-15T04:09:48.827Z,302.35
2019-01-15T04:10:48.803Z,301.85
2019-01-15T04:11:48.784Z,302.41
2019-01-15T04:12:48.780Z,302.07
2019-01-15T04:13:48.762Z,302.40
2019-01-15T04:14:48.793Z,302.64
2019-01-15T04:15:48.753Z,302.32
2019-01-15T04:16:57.771Z,302.00
2019-01-15T04:17:48.761Z,302.43
2019-01-15T04:18:50.420Z,302.41
2019-01-15T04:19:48.711Z,302.53
2019-01-15T04:20:48.702Z,302.70
2019-01-15T04:21:48.687Z,302.25
2019-01-15T04:22:48.677Z,302.17
2019-01-15T04:23:48.678Z,302.18
2019-01-15T04:24:48.678Z,302.62
2019-01-15T04:25:48.646Z,302.34
2019-01-15T04:26:48.640Z,302.48
2019-01-15T04:27:48.634Z,302.05
2019-01-15T04:28:48.620Z,302.08
2019-01-15T04:29:48.657Z,302.05
2019-01-15T04:30:48.597Z,302.55
2019-01-15T04:31:48.598Z,302.91
2019-01-15T04:32:48.586Z,302.63
2019-01-15T04:33:48.575Z,302.19
2019-01-15T04:34:49.318Z,302.31
2019-01-15T04:35:48.545Z,302.48
2019-01-15T04:36:48.548Z,302.53
2019-01-15T04:37:48.525Z,302.30
2019-01-15T04:38:48.520Z,302.32
2019-01-15T04:39:48.502Z,302.43
2019-01-15T04:40:48.522Z,302.40
2019-01-15T04:41:48.488Z,302.59
2019-01-15T04:42:48.469Z,302.89
2019-01-15T04:43:48.460Z,302.78
2019-01-15T04:44:48.445Z,302.87
2019-01-15T04:45:48.454Z,303.04
2019-01-15T04:46:48.441Z,302.77
2019-01-15T04:47:48.432Z,302.71
2019-01-15T04:48:48.411Z,302.47
2019-01-15T04:49:48.396Z,302.69
2019-01-15T04:50:48.407Z,303.04
2019-01-15T04:51:48.393Z,302.53
2019-01-15T04:52:48.384Z,302.62
2019-01-15T04:53:48.367Z,303.37
2019-01-15T04:54:48.357Z,302.70
2019-01-15T04:55:48.374Z,302.88
2019-01-15T04:56:48.316Z,303.03
2019-01-15T04:57:48.324Z,303.03
2019-01-15T04:58:48.310Z,302.99
2019-01-15T04:59:48.331Z,303.28
2019-01-15T05:00:48.341Z,302.91
2019-01-15T05:01:48.292Z,302.73
2019-01-15T05:02:48.265Z,302.83
2019-01-15T05:03:49.738Z,302.48
2019-01-15T05:04:48.270Z,303.07
2019-01-15T05:05:48.254Z,302.55
2019-01-15T05:06:48.249Z,302.99
2019-01-15T05:07:48.214Z,302.99
2019-01-15T05:08:48.266Z,302.33
2019-01-15T05:09:48.200Z,303.16
2019-01-15T05:10:48.201Z,302.90
2019-01-15T05:11:48.168Z,302.99
2019-01-15T05:12:48.151Z,302.68
2019-01-15T05:13:48.684Z,302.39
2019-01-15T05:14:48.133Z,302.55
2019-01-15T05:15:56.280Z,302.97
2019-01-15T05:18:04.798Z,301.40
2019-01-15T05:19:04.801Z,303.11
2019-01-15T05:20:13.629Z,302.52
2019-01-15T05:21:11.867Z,303.06
2019-01-15T05:22:13.655Z,302.92
2019-01-15T05:23:12.244Z,303.21
2019-01-15T05:24:15.707Z,303.06
2019-01-15T05:25:04.688Z,302.75
2019-01-15T05:26:12.387Z,302.53
2019-01-15T05:27:13.055Z,303.01
2019-01-15T05:28:04.618Z,302.82
2019-01-15T05:29:04.611Z,302.76
2019-01-15T05:30:04.594Z,302.73
2019-01-15T05:31:04.587Z,302.82
2019-01-15T05:32:04.591Z,302.66
2019-01-15T05:33:04.683Z,302.66
2019-01-15T05:34:04.567Z,302.81
2019-01-15T05:35:04.560Z,302.74
2019-01-15T05:36:04.535Z,302.87
2019-01-15T05:37:04.535Z,302.77
2019-01-15T05:38:04.524Z,302.98
2019-01-15T05:39:04.526Z,302.59
2019-01-15T05:40:04.493Z,302.21
2019-01-15T05:41:04.536Z,303.11
2019-01-15T05:42:04.493Z,302.38
2019-01-15T05:43:04.476Z,303.01
2019-01-15T05:44:12.485Z,302.43
2019-01-15T05:45:11.547Z,302.21
2019-01-15T05:46:11.645Z,302.64
2019-01-15T05:47:13.806Z,302.78
2019-01-15T05:48:05.429Z,302.35
2019-01-15T05:49:04.463Z,302.70
2019-01-15T05:50:04.477Z,302.33
2019-01-15T05:51:04.396Z,302.47
2019-01-15T05:52:04.357Z,302.94
2019-01-15T05:53:04.344Z,302.96
2019-01-15T05:54:04.346Z,302.98
2019-01-15T05:55:04.343Z,302.48
2019-01-15T05:56:04.374Z,302.59
2019-01-15T05:57:04.316Z,302.66
2019-01-15T05:58:04.321Z,302.98
2019-01-15T05:59:04.310Z,302.89
2019-01-15T06:00:04.307Z,302.90
2019-01-15T06:01:04.320Z,303.28
2019-01-15T06:02:04.271Z,302.60
2019-01-15T06:03:04.294Z,302.59
2019-01-15T06:04:04.231Z,302.68
2019-01-15T06:05:04.223Z,302.74
2019-01-15T06:06:04.260Z,302.67
2019-01-15T06:07:04.215Z,303.01
2019-01-15T06:08:04.222Z,302.86
2019-01-15T06:09:04.215Z,302.68
2019-01-15T06:10:04.173Z,303.07
2019-01-15T06:11:04.209Z,302.36
2019-01-15T06:12:04.156Z,302.56
2019-01-15T06:13:04.178Z,303.16
2019-01-15T06:14:04.153Z,302.65
2019-01-15T06:15:04.155Z,303.08
2019-01-15T06:16:04.165Z,301.88
2019-01-15T06:17:04.119Z,301.80
2019-01-15T06:18:04.116Z,302.72
2019-01-15T06:19:04.094Z,302.74
2019-01-15T06:20:04.068Z,303.09
2019-01-15T06:21:04.093Z,302.12
2019-01-15T06:22:04.056Z,302.25
2019-01-15T06:23:04.057Z,302.15
2019-01-15T06:24:04.056Z,302.91
2019-01-15T06:25:04.042Z,302.54
2019-01-15T06:26:04.051Z,302.29
2019-01-15T06:27:04.003Z,302.49
2019-01-15T06:28:03.982Z,302.08
2019-01-15T06:29:04.040Z,302.73
2019-01-15T06:30:03.978Z,302.22
2019-01-15T06:31:04.003Z,302.36
2019-01-15T06:32:03.992Z,302.24
2019-01-15T06:33:03.937Z,302.85
2019-01-15T06:34:03.922Z,302.40
2019-01-15T06:35:03.930Z,302.27
2019-01-15T06:36:04.747Z,302.30
2019-01-15T06:37:07.058Z,302.13
2019-01-15T06:38:04.250Z,302.18
2019-01-15T06:39:03.998Z,302.38
2019-01-15T06:40:04.051Z,302.11
2019-01-15T06:41:04.343Z,302.47
2019-01-15T06:43:32.014Z,302.07
2019-01-15T06:44:31.893Z,301.92
2019-01-15T06:45:32.142Z,302.27
2019-01-15T06:46:31.920Z,302.35
2019-01-15T06:47:31.954Z,301.67
2019-01-15T06:48:31.833Z,301.82
2019-01-15T06:49:31.840Z,302.62
2019-01-15T06:50:31.808Z,302.29
2019-01-15T06:51:31.837Z,301.93
2019-01-15T06:52:32.293Z,302.03
2019-01-15T06:53:31.775Z,302.19
2019-01-15T06:54:31.754Z,301.89
2019-01-15T06:55:31.784Z,302.58
2019-01-15T06:56:32.316Z,302.85
2019-01-15T06:57:31.728Z,302.16
2019-01-15T06:58:31.722Z,302.50
2019-01-15T06:59:31.715Z,303.06
2019-01-15T07:00:31.711Z,302.29
2019-01-15T07:01:31.722Z,301.79
2019-01-15T07:02:31.678Z,302.51
2019-01-15T07:03:32.305Z,302.33
2019-01-15T07:04:43.765Z,302.48
2019-01-15T07:05:31.654Z,302.75
2019-01-15T07:06:32.222Z,302.32
2019-01-15T07:07:31.654Z,302.41
2019-01-15T07:08:31.649Z,302.43
2019-01-15T07:09:31.581Z,302.88
2019-01-15T07:10:33.353Z,302.60
2019-01-15T07:11:38.682Z,302.17
2019-01-15T07:12:39.678Z,302.24
2019-01-15T07:13:31.582Z,302.48
2019-01-15T07:14:38.656Z,303.04
2019-01-15T07:15:38.625Z,302.03
2019-01-15T07:16:31.665Z,302.21
2019-01-15T07:17:31.543Z,301.75
2019-01-15T07:18:31.573Z,302.32
2019-01-15T07:19:31.492Z,303.05
2019-01-15T07:20:31.486Z,302.94
2019-01-15T07:21:31.483Z,302.21
2019-01-15T07:22:31.499Z,302.26
2019-01-15T07:23:31.455Z,302.23
2019-01-15T07:24:31.449Z,302.47
2019-01-15T07:25:31.460Z,302.90
2019-01-15T07:26:31.463Z,302.95
2019-01-15T07:27:31.402Z,303.27
2019-01-15T07:28:31.421Z,302.91
2019-01-15T07:29:31.392Z,302.19
2019-01-15T07:30:31.385Z,302.75
2019-01-15T07:31:31.399Z,302.19
2019-01-15T07:32:31.420Z,302.71
2019-01-15T07:33:31.371Z,302.69
2019-01-15T07:34:31.365Z,302.47
2019-01-15T07:35:39.446Z,302.93
2019-01-15T07:36:38.493Z,302.13
2019-01-15T07:37:31.437Z,302.34
2019-01-15T07:38:38.438Z,302.93
2019-01-15T07:39:31.320Z,302.05
2019-01-15T07:40:40.172Z,301.80
2019-01-15T07:41:31.635Z,302.29
2019-01-15T07:42:31.489Z,302.34
2019-01-15T07:43:31.292Z,302.77
2019-01-15T07:44:31.278Z,303.29
2019-01-15T07:45:31.239Z,302.64
2019-01-15T07:46:32.013Z,303.11
2019-01-15T07:47:31.217Z,302.70
2019-01-15T07:48:31.222Z,302.60
2019-01-15T07:49:41.159Z,302.19
2019-01-15T07:50:39.309Z,302.66
2019-01-15T07:51:31.289Z,302.93
2019-01-15T07:52:31.178Z,302.58
2019-01-15T07:53:31.189Z,303.11
2019-01-15T07:54:31.501Z,302.39
2019-01-15T07:55:31.279Z,303.03
2019-01-15T07:56:31.158Z,302.86
2019-01-15T07:57:31.201Z,302.83
2019-01-15T07:58:32.066Z,302.71
2019-01-15T07:59:31.112Z,303.15
2019-01-15T08:00:31.107Z,302.76
2019-01-15T08:01:31.089Z,303.16
2019-01-15T08:02:31.051Z,303.52
2019-01-15T08:03:31.076Z,302.78
2019-01-15T08:04:31.052Z,302.67
2019-01-15T08:05:31.042Z,302.57
2019-01-15T08:06:31.029Z,302.40
2019-01-15T08:07:30.995Z,302.71
2019-01-15T08:08:31.010Z,302.54
2019-01-15T08:09:31.012Z,302.52
2019-01-15T08:10:30.980Z,301.96
2019-01-15T08:11:31.004Z,302.94
2019-01-15T08:12:30.933Z,302.33
2019-01-15T08:13:30.929Z,301.81
2019-01-15T08:14:39.314Z,302.01
2019-01-15T08:15:31.172Z,302.88
2019-01-15T08:16:30.959Z,302.94
2019-01-15T08:17:31.213Z,302.93
2019-01-15T08:18:30.870Z,302.53
2019-01-15T08:19:30.875Z,303.12
2019-01-15T08:20:30.906Z,302.84
2019-01-15T08:21:30.850Z,303.01
2019-01-15T08:22:30.888Z,303.31
2019-01-15T08:23:30.847Z,302.98
2019-01-15T08:24:30.812Z,302.63
2019-01-15T08:25:31.586Z,302.74
2019-01-15T08:26:30.811Z,302.98
2019-01-15T08:27:30.827Z,302.84
2019-01-15T08:28:30.794Z,303.06
2019-01-15T08:29:30.785Z,303.28
2019-01-15T08:30:31.563Z,303.00
2019-01-15T08:31:30.730Z,302.18
2019-01-15T08:32:30.756Z,303.31
2019-01-15T08:33:30.730Z,303.26
2019-01-15T08:34:30.732Z,302.91
2019-01-15T08:35:30.722Z,302.49
2019-01-15T08:36:30.682Z,302.98
2019-01-15T08:37:30.678Z,302.91
2019-01-15T08:38:30.661Z,302.59
2019-01-15T08:39:30.704Z,302.42
2019-01-15T08:40:38.027Z,302.25
2019-01-15T08:41:38.702Z,302.53
2019-01-15T08:42:30.623Z,302.96
2019-01-15T08:43:30.618Z,302.61
2019-01-15T08:44:38.670Z,302.56
2019-01-15T08:45:41.658Z,302.81
2019-01-15T08:46:38.192Z,303.03
2019-01-15T08:47:30.596Z,302.55
2019-01-15T08:48:30.538Z,302.33
2019-01-15T08:49:30.541Z,302.54
2019-01-15T08:50:30.544Z,302.35
2019-01-15T08:51:30.521Z,302.62
2019-01-15T08:52:30.520Z,302.91
2019-01-15T08:53:30.484Z,302.47
2019-01-15T08:54:30.479Z,303.35
2019-01-15T08:55:30.481Z,303.28
2019-01-15T08:56:30.462Z,302.45
2019-01-15T08:57:30.473Z,302.45
2019-01-15T08:58:30.435Z,303.35
2019-01-15T08:59:30.421Z,303.15
2019-01-15T09:00:31.229Z,302.70
2019-01-15T09:01:30.409Z,303.08
2019-01-15T09:02:31.158Z,302.94
2019-01-15T09:03:30.411Z,302.16
2019-01-15T09:04:30.387Z,302.37
2019-01-15T09:05:30.368Z,302.65
2019-01-15T09:06:30.349Z,302.64
2019-01-15T09:07:30.353Z,302.19
2019-01-15T09:08:30.352Z,302.43
2019-01-15T09:09:30.342Z,302.46
2019-01-15T09:10:30.323Z,302.94
2019-01-15T09:11:30.652Z,302.71
2019-01-15T09:12:30.343Z,302.98
2019-01-15T09:13:30.292Z,302.84
2019-01-15T09:14:30.300Z,302.86
2019-01-15T09:15:30.267Z,302.70
2019-01-15T09:16:37.334Z,302.87
2019-01-15T09:17:30.280Z,303.08
2019-01-15T09:18:30.240Z,302.67
2019-01-15T09:19:38.303Z,302.29
2019-01-15T09:20:30.237Z,302.81
2019-01-15T09:21:38.279Z,303.03
2019-01-15T09:22:30.738Z,303.09
2019-01-15T09:23:30.176Z,302.80
2019-01-15T09:24:30.169Z,302.95
2019-01-15T09:25:30.147Z,303.07
2019-01-15T09:26:30.150Z,303.13
2019-01-15T09:27:30.173Z,303.57
2019-01-15T09:28:30.148Z,302.84
2019-01-15T09:29:30.113Z,303.17
2019-01-15T09:30:30.100Z,303.18
2019-01-15T09:31:30.092Z,303.09
2019-01-15T09:32:30.107Z,302.81
2019-01-15T09:33:30.073Z,303.37
2019-01-15T09:34:30.074Z,303.32
2019-01-15T09:35:30.052Z,303.66
2019-01-15T09:36:30.046Z,303.52
2019-01-15T09:37:30.058Z,303.24
2019-01-15T09:38:30.034Z,302.90
2019-01-15T09:39:30.036Z,302.85
2019-01-15T09:40:30.012Z,302.85
2019-01-15T09:41:30.027Z,303.13
2019-01-15T09:42:29.994Z,303.19
2019-01-15T09:43:29.975Z,303.52
2019-01-15T09:44:34.106Z,303.20
2019-01-15T09:45:29.947Z,303.94
2019-01-15T09:46:29.954Z,303.15
2019-01-15T09:47:29.951Z,303.40
2019-01-15T09:48:29.912Z,303.51
2019-01-15T09:49:29.911Z,303.23
2019-01-15T09:50:29.898Z,303.46
2019-01-15T09:51:29.886Z,303.56
2019-01-15T09:52:29.938Z,303.18
2019-01-15T09:53:29.897Z,303.76
2019-01-15T09:54:29.865Z,303.52
2019-01-15T09:55:29.857Z,303.66
2019-01-15T09:56:30.754Z,303.83
2019-01-15T09:57:29.862Z,302.86
2019-01-15T09:58:29.841Z,304.16
2019-01-15T09:59:29.804Z,303.15
2019-01-15T10:00:29.793Z,302.90
2019-01-15T10:01:30.757Z,302.99
2019-01-15T10:02:29.789Z,303.56
2019-01-15T10:03:29.765Z,303.10
2019-01-15T10:04:29.754Z,302.66
2019-01-15T10:05:29.733Z,303.45
2019-01-15T10:06:29.779Z,303.55
2019-01-15T10:07:29.746Z,303.26
2019-01-15T10:08:29.700Z,303.25
2019-01-15T10:09:29.696Z,302.81
2019-01-15T10:10:29.695Z,303.88
2019-01-15T10:11:29.685Z,303.23
2019-01-15T10:12:29.675Z,303.66
2019-01-15T10:13:29.669Z,303.10
2019-01-15T10:14:29.644Z,302.83
2019-01-15T10:15:29.642Z,303.10
2019-01-15T10:16:29.625Z,303.23
2019-01-15T10:17:29.659Z,303.25
2019-01-15T10:18:29.636Z,303.16
2019-01-15T10:19:29.612Z,302.99
2019-01-15T10:20:29.601Z,303.33
2019-01-15T10:21:29.579Z,303.70
2019-01-15T10:22:29.560Z,303.51
2019-01-15T10:23:29.561Z,303.40
2019-01-15T10:24:29.549Z,303.61
2019-01-15T10:25:29.537Z,302.74
2019-01-15T10:26:29.520Z,302.86
2019-01-15T10:27:29.506Z,303.48
2019-01-15T10:28:29.522Z,302.99
2019-01-15T10:29:29.499Z,303.00
2019-01-15T10:30:29.477Z,303.34
2019-01-15T10:31:29.489Z,303.82
2019-01-15T10:32:29.459Z,303.39
2019-01-15T10:33:29.486Z,303.27
2019-01-15T10:34:29.437Z,302.74
2019-01-15T10:35:29.440Z,303.79
2019-01-15T10:36:29.418Z,303.96
2019-01-15T10:37:29.410Z,303.29
2019-01-15T10:38:29.412Z,304.03
2019-01-15T10:39:29.393Z,303.61
2019-01-15T10:40:31.022Z,303.57
2019-01-15T10:41:29.370Z,303.48
2019-01-15T10:42:29.370Z,303.69
2019-01-15T10:43:29.367Z,303.30
2019-01-15T10:44:29.331Z,303.13
2019-01-15T10:45:29.338Z,304.24
2019-01-15T10:46:32.090Z,304.05
2019-01-15T10:47:29.300Z,303.23
2019-01-15T10:48:29.310Z,303.87
2019-01-15T10:49:29.290Z,303.74
2019-01-15T10:50:29.264Z,303.84
2019-01-15T10:51:29.293Z,303.41
2019-01-15T10:52:29.258Z,303.71
2019-01-15T10:53:29.254Z,303.28
2019-01-15T10:54:29.227Z,304.13
2019-01-15T10:55:29.214Z,303.59
2019-01-15T10:56:29.203Z,303.80
2019-01-15T10:57:29.192Z,303.35
2019-01-15T10:58:29.192Z,303.49
2019-01-15T10:59:29.174Z,304.02
2019-01-15T11:00:29.175Z,304.14
2019-01-15T11:01:29.155Z,303.81
2019-01-15T11:02:29.131Z,303.75
2019-01-15T11:03:29.169Z,303.47
2019-01-15T11:04:29.116Z,304.25
2019-01-15T11:05:29.127Z,304.22
2019-01-15T11:06:29.109Z,303.80
2019-01-15T11:07:29.078Z,303.79
2019-01-15T11:08:29.099Z,303.86
2019-01-15T11:09:29.071Z,303.44
2019-01-15T11:10:29.080Z,303.79
2019-01-15T11:11:29.064Z,304.32
2019-01-15T11:12:29.059Z,303.61
2019-01-15T11:13:29.029Z,303.47
2019-01-15T11:14:29.009Z,303.03
2019-01-15T11:15:29.012Z,303.34
2019-01-15T11:16:29.006Z,303.50
2019-01-15T11:17:28.984Z,303.29
2019-01-15T11:18:28.992Z,303.79
2019-01-15T11:19:28.962Z,303.45
2019-01-15T11:20:28.948Z,302.82
2019-01-15T11:21:28.933Z,303.40
2019-01-15T11:22:28.935Z,302.59
2019-01-15T11:23:28.961Z,303.29
2019-01-15T11:24:28.904Z,303.61
2019-01-15T11:25:28.904Z,304.34
2019-01-15T11:26:28.924Z,303.26
2019-01-15T11:27:28.875Z,303.41
2019-01-15T11:28:28.896Z,303.14
2019-01-15T11:29:28.906Z,303.40
2019-01-15T11:30:28.885Z,303.86
2019-01-15T11:31:28.849Z,302.87
2019-01-15T11:32:28.838Z,303.00
2019-01-15T11:33:28.839Z,303.19
2019-01-15T11:34:28.809Z,304.05
2019-01-15T11:35:28.791Z,304.05
2019-01-15T11:36:28.784Z,304.26
2019-01-15T11:37:28.767Z,304.11
2019-01-15T11:38:35.876Z,304.50
2019-01-15T11:39:36.838Z,304.87
2019-01-15T11:40:28.735Z,304.07
2019-01-15T11:41:28.729Z,304.21
2019-01-15T11:42:28.731Z,304.06
2019-01-15T11:43:28.721Z,303.72
2019-01-15T11:44:28.699Z,304.60
2019-01-15T11:45:28.678Z,303.85
2019-01-15T11:46:28.693Z,304.72
2019-01-15T11:47:28.794Z,304.31
2019-01-15T11:48:28.696Z,303.76
2019-01-15T11:49:28.674Z,304.23
2019-01-15T11:50:28.668Z,304.31
2019-01-15T11:51:28.640Z,304.30
2019-01-15T11:52:28.640Z,304.64
2019-01-15T11:53:28.637Z,303.02
2019-01-15T11:54:28.609Z,303.51
2019-01-15T11:55:28.614Z,304.76
2019-01-15T11:56:28.625Z,304.33
2019-01-15T11:57:28.561Z,304.30
2019-01-15T11:58:28.612Z,304.09
2019-01-15T11:59:28.550Z,304.89
2019-01-15T12:00:28.547Z,304.56
2019-01-15T12:01:28.558Z,304.33
2019-01-15T12:02:28.508Z,305.32
2019-01-15T12:03:28.570Z,304.45
2019-01-15T12:04:28.506Z,303.99
2019-01-15T12:05:28.623Z,304.53
2019-01-15T12:06:28.476Z,303.66
2019-01-15T12:07:28.457Z,304.50
2019-01-15T12:08:28.480Z,304.14
2019-01-15T12:09:28.430Z,304.27
2019-01-15T12:10:28.441Z,303.99
2019-01-15T12:11:28.441Z,304.42
2019-01-15T12:12:28.413Z,304.16
2019-01-15T12:13:28.421Z,304.56
2019-01-15T12:14:28.391Z,304.58
2019-01-15T12:15:28.374Z,304.91
2019-01-15T12:16:28.363Z,304.71
2019-01-15T12:17:28.400Z,304.26
2019-01-15T12:18:28.454Z,304.81
2019-01-15T12:19:28.345Z,304.27
2019-01-15T12:20:28.334Z,304.39
2019-01-15T12:21:28.320Z,304.93
2019-01-15T12:22:28.309Z,304.69
2019-01-15T12:23:28.364Z,304.55
2019-01-15T12:24:28.314Z,304.80
2019-01-15T12:25:28.317Z,304.45
2019-01-15T12:26:28.258Z,305.05
2019-01-15T12:27:29.259Z,304.88
2019-01-15T12:28:28.319Z,305.30
2019-01-15T12:29:28.265Z,304.79
2019-01-15T12:30:28.234Z,304.44
2019-01-15T12:31:28.221Z,305.32